Terminal Aerodrome Forecast
Issued by NWS Bismarck, ND

Home | Current Version | Previous Version | Graphics & Text | Print | Product List | Glossary On
Versions: 1 2 3 4 5 6 7 8 9 10 11 12 13 14 15 16 17 18 19 20 21 22
000
FTUS43 KBIS 282327
TAFBIS
TAF
KBIS 282327Z 2900/2924 26012G22KT P6SM -TSRA BKN040CB
      TEMPO 2900/2901 4SM SHRA BKN035
     FM290100 34004KT P6SM VCTS BKN120CB
     FM290300 VRB03KT P6SM SCT200
     FM291600 30007KT P6SM SKC=

USA.gov is the U.S. government's official web portal to all federal, state and local government web resources and services.